createdAt,value
2018-06-30T00:02:15.516Z,99804.53
2018-06-30T00:04:41.523Z,99808.77
2018-06-30T00:07:07.515Z,99811.70
2018-06-30T00:09:33.500Z,99815.73
2018-06-30T00:11:59.473Z,99809.33
2018-06-30T00:14:25.448Z,99809.89
2018-06-30T00:16:51.407Z,99810.87
2018-06-30T00:19:17.399Z,99814.64
2018-06-30T00:21:43.350Z,99823.39
2018-06-30T00:24:09.323Z,99813.67
2018-06-30T00:26:35.284Z,99813.36
2018-06-30T00:29:01.236Z,99808.55
2018-06-30T00:31:27.175Z,99810.16
2018-06-30T00:33:53.199Z,99816.80
2018-06-30T00:36:19.158Z,99816.01
2018-06-30T00:38:45.122Z,99813.80
2018-06-30T00:41:11.104Z,99818.98
2018-06-30T00:43:37.060Z,99813.56
2018-06-30T00:46:03.015Z,99815.25
2018-06-30T00:48:29.022Z,99813.86
2018-06-30T00:50:54.947Z,99809.66
2018-06-30T00:53:20.895Z,99816.01
2018-06-30T00:55:46.860Z,99813.91
2018-06-30T00:58:12.820Z,99819.59
2018-06-30T01:00:38.824Z,99814.52
2018-06-30T01:03:04.779Z,99819.59
2018-06-30T01:05:31.001Z,99823.56
2018-06-30T01:07:56.964Z,99829.69
2018-06-30T01:10:22.916Z,99833.86
2018-06-30T01:12:48.896Z,99827.95
2018-06-30T01:15:14.858Z,99831.69
2018-06-30T01:17:40.797Z,99823.91
2018-06-30T01:20:06.781Z,99829.19
2018-06-30T01:22:32.748Z,99832.88
2018-06-30T01:24:58.720Z,99832.30
2018-06-30T01:27:24.657Z,99834.53
2018-06-30T01:29:50.617Z,99836.17
2018-06-30T01:32:16.587Z,99843.89
2018-06-30T01:34:42.551Z,99844.52
2018-06-30T01:37:08.526Z,99847.19
2018-06-30T01:39:34.511Z,99843.48
2018-06-30T01:42:00.513Z,99847.13
2018-06-30T01:44:26.450Z,99850.52
2018-06-30T01:46:52.419Z,99850.88
2018-06-30T01:49:18.373Z,99854.47
2018-06-30T01:51:44.320Z,99852.33
2018-06-30T01:54:10.304Z,99849.88
2018-06-30T01:56:36.241Z,99850.64
2018-06-30T01:59:02.199Z,99844.34
2018-06-30T02:01:28.152Z,99846.71
2018-06-30T02:03:54.102Z,99855.27
2018-06-30T02:06:20.034Z,99851.09
2018-06-30T02:08:45.990Z,99849.66
2018-06-30T02:11:11.961Z,99854.14
2018-06-30T02:13:37.959Z,99863.48
2018-06-30T02:16:03.932Z,99864.52
2018-06-30T02:18:29.886Z,99874.08
2018-06-30T02:20:55.865Z,99869.05
2018-06-30T02:23:21.807Z,99871.96
2018-06-30T02:25:47.748Z,99879.48
2018-06-30T02:28:13.740Z,99862.31
2018-06-30T02:30:39.711Z,99884.08
2018-06-30T02:33:05.688Z,99875.53
2018-06-30T02:35:31.656Z,99882.75
2018-06-30T02:37:57.617Z,99882.59
2018-06-30T02:40:23.619Z,99880.80
2018-06-30T02:42:49.805Z,99887.06
2018-06-30T02:45:15.787Z,99894.34
2018-06-30T02:47:41.740Z,99893.23
2018-06-30T02:50:07.696Z,99905.58
2018-06-30T02:52:33.674Z,99905.20
2018-06-30T02:54:59.658Z,99911.88
2018-06-30T02:57:25.623Z,99915.39
2018-06-30T02:59:51.559Z,99910.36
2018-06-30T03:02:17.508Z,99909.09
2018-06-30T03:04:43.492Z,99911.42
2018-06-30T03:07:09.462Z,99911.54
2018-06-30T03:09:35.417Z,99919.68
2018-06-30T03:12:01.409Z,99916.94
2018-06-30T03:14:27.362Z,99916.80
2018-06-30T03:16:53.336Z,99919.68
2018-06-30T03:19:19.286Z,99922.47
2018-06-30T03:21:45.243Z,99928.31
2018-06-30T03:24:11.219Z,99933.26
2018-06-30T03:26:38.595Z,99933.05
2018-06-30T03:29:04.908Z,99940.19
2018-06-30T03:31:30.904Z,99941.44
2018-06-30T03:33:56.812Z,99948.78
2018-06-30T03:36:22.774Z,99945.92
2018-06-30T03:38:48.758Z,99949.66
2018-06-30T03:41:14.701Z,99947.83
2018-06-30T03:43:40.645Z,99942.95
2018-06-30T03:46:06.588Z,99952.63
2018-06-30T03:48:32.550Z,99948.72
2018-06-30T03:50:58.524Z,99956.64
2018-06-30T03:53:24.465Z,99960.95
2018-06-30T03:55:50.481Z,99957.84
2018-06-30T03:58:16.445Z,99961.05
2018-06-30T04:00:42.424Z,99964.20
2018-06-30T04:03:08.372Z,99964.88
2018-06-30T04:05:34.318Z,99969.87
2018-06-30T04:08:00.301Z,99975.18
2018-06-30T04:10:26.255Z,99976.43
2018-06-30T04:12:52.208Z,99978.33
2018-06-30T04:15:18.152Z,99984.05
2018-06-30T04:17:47.708Z,99984.30
2018-06-30T04:20:13.856Z,99985.85
2018-06-30T04:22:39.804Z,99993.80
2018-06-30T04:25:05.768Z,99995.53
2018-06-30T04:27:31.733Z,100005.85
2018-06-30T04:29:57.695Z,100004.61
2018-06-30T04:32:23.679Z,100003.69
2018-06-30T04:34:49.642Z,100012.47
2018-06-30T04:37:15.600Z,100009.52
2018-06-30T04:39:41.543Z,100004.56
2018-06-30T04:42:07.521Z,100018.39
2018-06-30T04:44:33.460Z,100022.38
2018-06-30T04:46:59.407Z,100019.50
2018-06-30T04:49:25.370Z,100021.91
2018-06-30T04:51:51.314Z,100021.97
2018-06-30T04:54:17.276Z,100035.73
2018-06-30T04:56:43.248Z,100032.59
2018-06-30T04:59:09.248Z,100031.94
2018-06-30T05:01:35.242Z,100038.24
2018-06-30T05:04:01.221Z,100040.14
2018-06-30T05:06:27.168Z,100035.16
2018-06-30T05:08:53.359Z,100039.18
2018-06-30T05:11:19.363Z,100044.20
2018-06-30T05:13:45.365Z,100051.73
2018-06-30T05:16:11.310Z,100048.17
2018-06-30T05:18:37.252Z,100047.84
2018-06-30T05:21:03.210Z,100054.80
2018-06-30T05:23:29.173Z,100059.55
2018-06-30T05:25:55.166Z,100049.95
2018-06-30T05:28:21.129Z,100056.84
2018-06-30T05:30:47.132Z,100057.60
2018-06-30T05:33:13.131Z,100054.09
2018-06-30T05:35:39.048Z,100057.66
2018-06-30T05:38:04.993Z,100059.59
2018-06-30T05:40:30.952Z,100063.55
2018-06-30T05:42:56.916Z,100064.59
2018-06-30T05:45:22.894Z,100063.02
2018-06-30T05:47:48.834Z,100062.41
2018-06-30T05:50:14.788Z,100060.08
2018-06-30T05:52:40.731Z,100060.48
2018-06-30T05:55:06.687Z,100067.43
2018-06-30T05:57:32.637Z,100060.61
2018-06-30T05:59:58.596Z,100063.33
2018-06-30T06:02:24.618Z,100063.59
2018-06-30T06:04:50.567Z,100067.72
2018-06-30T06:07:16.521Z,100073.38
2018-06-30T06:09:42.525Z,100071.14
2018-06-30T06:12:08.511Z,100060.92
2018-06-30T06:14:34.510Z,100068.77
2018-06-30T06:17:00.484Z,100068.38
2018-06-30T06:19:26.430Z,100069.48
2018-06-30T06:21:52.402Z,100072.88
2018-06-30T06:24:18.392Z,100075.47
2018-06-30T06:26:44.457Z,100073.92
2018-06-30T06:29:10.443Z,100075.08
2018-06-30T06:31:36.398Z,100076.36
2018-06-30T06:34:02.375Z,100080.05
2018-06-30T06:36:28.305Z,100077.11
2018-06-30T06:38:54.337Z,100078.78
2018-06-30T06:41:20.308Z,100077.84
2018-06-30T06:43:46.287Z,100084.56
2018-06-30T06:46:12.262Z,100090.63
2018-06-30T06:48:38.323Z,100095.07
2018-06-30T06:51:04.302Z,100088.17
2018-06-30T06:53:30.293Z,100085.84
2018-06-30T06:55:56.289Z,100090.61
2018-06-30T06:58:22.357Z,100094.45
2018-06-30T07:00:48.304Z,100085.94
2018-06-30T07:03:14.261Z,100093.39
2018-06-30T07:05:40.280Z,100088.98
2018-06-30T07:08:06.271Z,100087.61
2018-06-30T07:10:32.339Z,100087.30
2018-06-30T07:12:58.358Z,100087.97
2018-06-30T07:20:27.193Z,100096.70
2018-06-30T07:22:53.153Z,100093.52
2018-06-30T07:25:19.269Z,100102.14
2018-06-30T07:27:45.269Z,100102.42
2018-06-30T07:30:11.266Z,100104.47
2018-06-30T07:32:37.240Z,100103.94
2018-06-30T07:35:03.230Z,100088.30
2018-06-30T07:37:29.247Z,100098.48
2018-06-30T07:39:55.228Z,100099.45
2018-06-30T07:42:21.172Z,100096.74
2018-06-30T07:44:47.148Z,100101.87
2018-06-30T07:47:13.786Z,100090.58
2018-06-30T07:49:39.769Z,100096.24
2018-06-30T07:52:05.753Z,100093.11
2018-06-30T07:54:31.717Z,100103.11
2018-06-30T07:56:57.685Z,100092.36
2018-06-30T07:59:23.656Z,100091.70
2018-06-30T08:01:49.621Z,100095.48
2018-06-30T08:04:16.455Z,100094.89
2018-06-30T08:06:42.457Z,100093.97
2018-06-30T08:09:08.424Z,100102.16
2018-06-30T08:11:34.713Z,100107.45
2018-06-30T08:14:00.654Z,100101.64
2018-06-30T08:16:26.619Z,100106.52
2018-06-30T08:18:52.596Z,100096.25
2018-06-30T08:21:18.562Z,100104.00
2018-06-30T08:23:44.502Z,100111.58
2018-06-30T08:26:10.475Z,100106.42
2018-06-30T08:28:36.432Z,100116.50
2018-06-30T08:31:02.413Z,100114.61
2018-06-30T08:33:28.367Z,100115.69
2018-06-30T08:35:54.327Z,100126.66
2018-06-30T08:38:20.390Z,100124.13
2018-06-30T08:40:46.345Z,100122.79
2018-06-30T08:43:13.338Z,100117.77
2018-06-30T08:45:39.294Z,100122.70
2018-06-30T08:48:05.251Z,100129.34
2018-06-30T08:50:31.217Z,100116.05
2018-06-30T08:52:57.217Z,100118.73
2018-06-30T08:55:23.171Z,100112.05
2018-06-30T08:57:49.126Z,100120.15
2018-06-30T09:00:15.078Z,100110.66
2018-06-30T09:02:41.044Z,100114.19
2018-06-30T09:05:06.978Z,100119.19
2018-06-30T09:07:32.957Z,100112.08
2018-06-30T09:09:59.002Z,100114.23
2018-06-30T09:12:24.948Z,100109.73
2018-06-30T09:14:50.884Z,100108.45
2018-06-30T09:17:16.848Z,100107.29
2018-06-30T09:19:43.890Z,100105.22
2018-06-30T09:22:09.913Z,100116.28
2018-06-30T09:24:35.854Z,100100.41
2018-06-30T09:27:01.826Z,100123.52
2018-06-30T09:29:28.824Z,100108.97
2018-06-30T09:31:54.831Z,100111.36
2018-06-30T09:34:20.798Z,100109.06
2018-06-30T09:36:49.405Z,100115.23
2018-06-30T09:39:15.483Z,100111.69
2018-06-30T09:41:42.959Z,100110.45
2018-06-30T09:44:08.906Z,100116.55
2018-06-30T09:46:34.874Z,100112.31
2018-06-30T09:49:00.854Z,100120.18
2018-06-30T09:51:26.799Z,100108.58
2018-06-30T09:53:52.773Z,100118.53
2018-06-30T09:56:18.735Z,100108.90
2018-06-30T09:58:44.713Z,100114.47
2018-06-30T10:01:10.694Z,100107.12
2018-06-30T10:03:36.698Z,100115.16
2018-06-30T10:06:02.672Z,100115.97
2018-06-30T10:08:28.661Z,100118.26
2018-06-30T10:10:54.637Z,100113.87
2018-06-30T10:13:20.600Z,100111.70
2018-06-30T10:15:50.703Z,100109.42
2018-06-30T10:18:16.895Z,100106.20
2018-06-30T10:20:42.852Z,100112.95
2018-06-30T10:25:43.832Z,100112.45
2018-06-30T10:33:12.478Z,100100.57
2018-06-30T10:35:38.416Z,100093.78
2018-06-30T10:38:04.414Z,100096.20
2018-06-30T10:40:30.402Z,100107.79
2018-06-30T10:42:56.406Z,100102.30
2018-06-30T10:45:22.399Z,100106.88
2018-06-30T10:47:48.397Z,100106.98
2018-06-30T10:50:14.424Z,100094.37
2018-06-30T10:52:40.384Z,100107.12
2018-06-30T10:55:06.339Z,100101.06
2018-06-30T10:57:32.297Z,100093.63
2018-06-30T10:59:58.254Z,100094.96
2018-06-30T11:02:24.208Z,100099.37
2018-06-30T11:04:50.157Z,100103.86
2018-06-30T11:07:16.120Z,100094.44
2018-06-30T11:09:42.143Z,100092.33
2018-06-30T11:12:08.169Z,100099.17
2018-06-30T11:14:34.104Z,100093.64
2018-06-30T11:17:00.063Z,100106.48
2018-06-30T11:19:26.063Z,100095.92
2018-06-30T11:21:52.036Z,100089.14
2018-06-30T11:24:17.983Z,100082.14
2018-06-30T11:26:43.923Z,100084.22
2018-06-30T11:29:09.913Z,100085.87
2018-06-30T11:31:35.891Z,100076.03
2018-06-30T11:34:01.857Z,100079.36
2018-06-30T11:36:27.866Z,100080.47
2018-06-30T11:38:53.893Z,100074.87
2018-06-30T11:41:20.186Z,100077.83
2018-06-30T11:43:46.137Z,100073.75
2018-06-30T11:46:12.095Z,100076.70
2018-06-30T11:48:38.072Z,99707.77
2018-06-30T11:51:04.045Z,100084.11
2018-06-30T11:53:30.064Z,100073.64
2018-06-30T11:55:56.022Z,100076.21
2018-06-30T11:58:21.985Z,100076.00
2018-06-30T12:00:48.017Z,100067.23
2018-06-30T12:03:14.003Z,100072.16
2018-06-30T12:05:39.981Z,100074.87
2018-06-30T12:08:05.971Z,100072.41
2018-06-30T12:10:31.948Z,100064.89
2018-06-30T12:12:57.930Z,100077.48
2018-06-30T12:15:23.973Z,100059.75
2018-06-30T12:17:50.100Z,100056.91
2018-06-30T12:20:16.063Z,100067.22
2018-06-30T12:22:42.096Z,100060.78
2018-06-30T12:25:08.072Z,100053.73
2018-06-30T12:27:34.086Z,100049.94
2018-06-30T12:30:00.096Z,100062.97
2018-06-30T12:32:26.185Z,100064.52
2018-06-30T12:34:52.168Z,100060.01
2018-06-30T12:37:18.173Z,100063.08
2018-06-30T12:39:44.180Z,100051.04
2018-06-30T12:42:10.140Z,100060.23
2018-06-30T12:44:36.085Z,100057.84
2018-06-30T12:47:02.059Z,100049.75
2018-06-30T12:49:28.037Z,100051.69
2018-06-30T12:51:54.055Z,100059.23
2018-06-30T12:54:20.074Z,100064.25
2018-06-30T12:56:46.084Z,100053.50
2018-06-30T12:59:12.116Z,100043.33
2018-06-30T13:01:38.158Z,100045.73
2018-06-30T13:04:04.132Z,100046.86
2018-06-30T13:06:30.155Z,100052.42
2018-06-30T13:08:56.095Z,100064.23
2018-06-30T13:11:22.089Z,100057.28
2018-06-30T13:13:48.062Z,100053.44
2018-06-30T13:16:14.015Z,100062.20
2018-06-30T13:18:40.021Z,100065.27
2018-06-30T13:21:08.451Z,100054.94
2018-06-30T13:23:34.525Z,100051.99
2018-06-30T13:26:00.494Z,100053.82
2018-06-30T13:28:26.462Z,100053.98
2018-06-30T13:30:52.436Z,100069.09
2018-06-30T13:33:18.465Z,100064.65
2018-06-30T13:35:44.568Z,100064.94
2018-06-30T13:38:10.548Z,100062.06
2018-06-30T13:40:36.547Z,100056.22
2018-06-30T13:43:02.547Z,100062.05
2018-06-30T13:45:28.513Z,100055.62
2018-06-30T13:47:54.541Z,100060.70
2018-06-30T13:50:20.545Z,100055.40
2018-06-30T13:52:46.567Z,100065.23
2018-06-30T13:55:12.475Z,100058.19
2018-06-30T13:57:38.823Z,100054.20
2018-06-30T14:00:04.829Z,100052.85
2018-06-30T14:02:30.788Z,100058.36
2018-06-30T14:04:56.777Z,100060.02
2018-06-30T14:07:22.764Z,100056.75
2018-06-30T14:09:48.707Z,100064.77
2018-06-30T14:12:14.657Z,100056.00
2018-06-30T14:14:40.631Z,100056.33
2018-06-30T14:17:06.769Z,100056.38
2018-06-30T14:19:32.721Z,100049.78
2018-06-30T14:21:58.681Z,100046.23
2018-06-30T14:24:24.656Z,100062.23
2018-06-30T14:26:50.618Z,100048.81
2018-06-30T14:29:16.562Z,100045.80
2018-06-30T14:31:42.812Z,100044.31
2018-06-30T14:34:08.793Z,100045.53
2018-06-30T14:36:34.753Z,100052.59
2018-06-30T14:39:00.694Z,100051.63
2018-06-30T14:41:26.674Z,100059.12
2018-06-30T14:43:52.741Z,100057.07
2018-06-30T14:46:18.696Z,100053.50
2018-06-30T14:48:44.670Z,100054.41
2018-06-30T14:51:10.649Z,100055.52
2018-06-30T14:53:36.600Z,100058.58
2018-06-30T14:56:02.683Z,100055.85
2018-06-30T14:58:28.649Z,100040.25
2018-06-30T15:00:55.335Z,100036.72
2018-06-30T15:03:21.299Z,100040.69
2018-06-30T15:05:47.255Z,100041.38
2018-06-30T15:08:13.208Z,100024.69
2018-06-30T15:10:39.164Z,100037.26
2018-06-30T15:13:05.155Z,100037.73
2018-06-30T15:15:31.157Z,100030.79
2018-06-30T15:17:57.141Z,100025.92
2018-06-30T15:20:23.078Z,100018.54
2018-06-30T15:22:49.060Z,100036.63
2018-06-30T15:25:15.030Z,100033.67
2018-06-30T15:27:41.050Z,100030.83
2018-06-30T15:30:06.999Z,100026.98
2018-06-30T15:32:32.973Z,100031.05
2018-06-30T15:34:58.913Z,100032.18
2018-06-30T15:37:24.894Z,100029.51
2018-06-30T15:39:50.866Z,100040.67
2018-06-30T15:42:16.844Z,100040.45
2018-06-30T15:44:42.827Z,100036.34
2018-06-30T15:47:08.838Z,100043.52
2018-06-30T15:49:34.790Z,100050.73
2018-06-30T15:52:00.783Z,100046.69
2018-06-30T15:54:26.738Z,100042.35
2018-06-30T15:56:52.776Z,100055.03
2018-06-30T15:59:18.857Z,100041.86
2018-06-30T16:01:44.735Z,100040.14
2018-06-30T16:04:15.806Z,100044.67
2018-06-30T16:06:41.781Z,100040.94
2018-06-30T16:09:07.815Z,100042.66
2018-06-30T16:11:33.855Z,100042.55
2018-06-30T16:14:00.905Z,100033.13
2018-06-30T16:16:26.923Z,100047.57
2018-06-30T16:18:52.964Z,100045.16
2018-06-30T16:21:18.917Z,100045.73
2018-06-30T16:23:44.917Z,100049.91
2018-06-30T16:26:10.880Z,100050.08
2018-06-30T16:28:36.885Z,100045.92
2018-06-30T16:31:02.834Z,100046.71
2018-06-30T16:33:29.178Z,100047.94
2018-06-30T16:35:55.165Z,100049.81
2018-06-30T16:38:21.123Z,100049.11
2018-06-30T16:40:47.108Z,100045.10
2018-06-30T16:43:13.081Z,100038.80
2018-06-30T16:45:39.072Z,100044.57
2018-06-30T16:48:05.020Z,100039.95
2018-06-30T16:50:30.955Z,100041.94
2018-06-30T16:52:56.968Z,100040.33
2018-06-30T16:55:22.974Z,100038.39
2018-06-30T16:57:48.993Z,100039.78
2018-06-30T17:00:14.944Z,100041.14
2018-06-30T17:02:41.335Z,100045.53
2018-06-30T17:05:07.280Z,100048.05
2018-06-30T17:07:33.312Z,100046.11
2018-06-30T17:09:59.258Z,100045.11
2018-06-30T17:12:25.248Z,100044.15
2018-06-30T17:14:51.337Z,100038.76
2018-06-30T17:17:17.329Z,100039.98
2018-06-30T17:19:43.307Z,100043.72
2018-06-30T17:22:09.330Z,100046.12
2018-06-30T17:24:35.287Z,100045.16
2018-06-30T17:27:01.262Z,100039.39
2018-06-30T17:29:29.270Z,100041.84
2018-06-30T17:31:55.286Z,100041.14
2018-06-30T17:34:21.262Z,100040.45
2018-06-30T17:36:47.226Z,100044.30
2018-06-30T17:39:13.215Z,100044.37
2018-06-30T17:41:39.265Z,100042.00
2018-06-30T17:44:05.242Z,100041.38
2018-06-30T17:46:31.246Z,100038.92
2018-06-30T17:48:57.246Z,100040.61
2018-06-30T17:51:23.218Z,100045.16
2018-06-30T17:53:50.857Z,100050.56
2018-06-30T17:56:16.812Z,100043.87
2018-06-30T17:58:42.800Z,100047.17
2018-06-30T18:01:08.800Z,100048.51
2018-06-30T18:03:34.759Z,100048.89
2018-06-30T18:06:00.699Z,100043.97
2018-06-30T18:08:26.697Z,100049.67
2018-06-30T18:10:52.680Z,100058.21
2018-06-30T18:13:18.626Z,100050.01
2018-06-30T18:15:44.569Z,100053.03
2018-06-30T18:18:10.511Z,100057.11
2018-06-30T18:20:36.569Z,100054.92
2018-06-30T18:23:02.533Z,100057.16
2018-06-30T18:25:28.513Z,100056.88
2018-06-30T18:27:54.477Z,100056.08
2018-06-30T18:30:20.433Z,100055.50
2018-06-30T18:32:46.476Z,100058.40
2018-06-30T18:35:12.445Z,100057.75
2018-06-30T18:37:38.472Z,100059.40
2018-06-30T18:40:04.467Z,100064.58
2018-06-30T18:42:30.464Z,100056.66
2018-06-30T18:44:56.449Z,100063.87
2018-06-30T18:47:22.455Z,100060.73
2018-06-30T18:49:48.449Z,100060.05
2018-06-30T18:52:14.418Z,100055.78
2018-06-30T18:54:40.416Z,100057.16
2018-06-30T18:57:06.419Z,100060.96
2018-06-30T18:59:32.438Z,100059.14
2018-06-30T19:01:58.416Z,100062.94
2018-06-30T19:04:24.421Z,100061.61
2018-06-30T19:06:50.457Z,100064.87
2018-06-30T19:09:16.427Z,100064.07
2018-06-30T19:11:42.487Z,100063.47
2018-06-30T19:14:08.442Z,100070.98
2018-06-30T19:16:34.432Z,100073.83
2018-06-30T19:19:00.399Z,100083.02
2018-06-30T19:21:26.502Z,100084.40
2018-06-30T19:23:52.454Z,100086.06
2018-06-30T19:26:18.448Z,100089.11
2018-06-30T19:28:44.411Z,100085.03
2018-06-30T19:31:10.389Z,100087.42
2018-06-30T19:33:36.395Z,100088.13
2018-06-30T19:36:02.621Z,100084.13
2018-06-30T19:38:28.612Z,100083.95
2018-06-30T19:40:54.600Z,100087.04
2018-06-30T19:43:20.565Z,100093.29
2018-06-30T19:45:46.545Z,100095.56
2018-06-30T19:48:12.503Z,100102.92
2018-06-30T19:50:39.578Z,100092.48
2018-06-30T19:53:05.604Z,100097.18
2018-06-30T19:55:31.634Z,100100.17
2018-06-30T19:57:57.626Z,100093.44
2018-06-30T20:00:23.588Z,100102.73
2018-06-30T20:02:49.551Z,100100.03
2018-06-30T20:05:15.551Z,100103.83
2018-06-30T20:07:41.496Z,100105.58
2018-06-30T20:10:07.492Z,100101.97
2018-06-30T20:15:09.381Z,100099.94
2018-06-30T20:17:35.407Z,100104.14
2018-06-30T20:20:03.467Z,100105.58
2018-06-30T20:22:29.438Z,100107.41
2018-06-30T20:24:55.470Z,100104.95
2018-06-30T20:27:21.465Z,100099.23
2018-06-30T20:29:47.484Z,100107.56
2018-06-30T20:32:13.493Z,100115.37
2018-06-30T20:34:39.505Z,100109.99
2018-06-30T20:37:05.477Z,100114.73
2018-06-30T20:39:31.464Z,100111.46
2018-06-30T20:41:57.470Z,100117.94
2018-06-30T20:44:23.481Z,100111.68
2018-06-30T20:46:49.483Z,100122.33
2018-06-30T20:49:15.587Z,100114.10
2018-06-30T20:54:15.041Z,100123.57
2018-06-30T20:56:44.996Z,100117.86
2018-06-30T20:59:12.034Z,100123.66
2018-06-30T21:01:38.116Z,100122.46
2018-06-30T21:04:04.094Z,100125.33
2018-06-30T21:06:30.129Z,100125.92
2018-06-30T21:08:56.160Z,100121.05
2018-06-30T21:11:22.194Z,100131.13
2018-06-30T21:13:48.217Z,100130.27
2018-06-30T21:16:14.311Z,100136.41
2018-06-30T21:18:40.319Z,100134.12
2018-06-30T21:21:06.324Z,100134.86
2018-06-30T21:23:32.313Z,100135.17
2018-06-30T21:25:58.296Z,100142.42
2018-06-30T21:28:24.286Z,100137.84
2018-06-30T21:30:50.231Z,100138.39
2018-06-30T21:33:16.509Z,100140.52
2018-06-30T21:35:42.440Z,100140.09
2018-06-30T21:38:08.406Z,100134.44
2018-06-30T21:40:34.538Z,100134.63
2018-06-30T21:43:00.529Z,100139.36
2018-06-30T21:45:26.889Z,100135.67
2018-06-30T21:47:52.850Z,100141.83
2018-06-30T21:50:18.845Z,100145.28
2018-06-30T21:52:44.786Z,100135.97
2018-06-30T21:55:10.776Z,100142.05
2018-06-30T21:57:36.792Z,100139.56
2018-06-30T22:00:02.744Z,100144.61
2018-06-30T22:02:28.722Z,100147.62
2018-06-30T22:04:54.683Z,100148.13
2018-06-30T22:07:20.652Z,100148.20
2018-06-30T22:09:46.652Z,100145.39
2018-06-30T22:12:12.646Z,100151.78
2018-06-30T22:14:38.623Z,100151.45
2018-06-30T22:17:04.605Z,100150.43
2018-06-30T22:19:30.551Z,100149.47
2018-06-30T22:21:56.533Z,100154.38
2018-06-30T22:24:22.524Z,100156.39
2018-06-30T22:26:48.492Z,100162.52
2018-06-30T22:29:14.439Z,100162.28
2018-06-30T22:31:40.417Z,100161.17
2018-06-30T22:34:06.412Z,100157.08
2018-06-30T22:36:32.406Z,100162.24
2018-06-30T22:38:58.602Z,100160.30
2018-06-30T22:41:24.581Z,100168.27
2018-06-30T22:43:50.568Z,100158.57
2018-06-30T22:46:16.513Z,100159.02
2018-06-30T22:48:42.481Z,100157.53
2018-06-30T22:51:08.443Z,100157.51
2018-06-30T22:53:34.422Z,100159.05
2018-06-30T22:56:00.387Z,100160.91
2018-06-30T22:58:26.369Z,100156.47
2018-06-30T23:00:52.339Z,100165.98
2018-06-30T23:03:18.316Z,100160.75
2018-06-30T23:05:44.284Z,100152.28
2018-06-30T23:08:10.256Z,100160.60
2018-06-30T23:10:36.255Z,100161.06
2018-06-30T23:13:02.225Z,100158.66
2018-06-30T23:15:28.161Z,100159.72
2018-06-30T23:17:54.109Z,100163.03
2018-06-30T23:20:20.128Z,100161.00
2018-06-30T23:22:46.148Z,100160.50
2018-06-30T23:25:12.153Z,100165.62
2018-06-30T23:27:38.097Z,100165.44
2018-06-30T23:30:04.063Z,100161.61
2018-06-30T23:32:30.040Z,100165.22
2018-06-30T23:34:56.006Z,100160.75
2018-06-30T23:37:22.640Z,100167.84
2018-06-30T23:39:48.597Z,100168.66
2018-06-30T23:42:14.553Z,100173.73
2018-06-30T23:44:40.535Z,100165.70
2018-06-30T23:47:06.434Z,100171.23
2018-06-30T23:49:32.387Z,100167.55
2018-06-30T23:51:58.327Z,100175.38
2018-06-30T23:54:24.300Z,100167.73
2018-06-30T23:56:50.249Z,100172.80
2018-06-30T23:59:16.217Z,100167.73
